sensor_id;sensor_type;location;lat;lon;timestamp;temperature;humidity
46608;DHT22;32330;51.936;7.184;2022-09-03T00:02:21;18.00;71.80
46608;DHT22;32330;51.936;7.184;2022-09-03T00:07:21;18.00;72.30
46608;DHT22;32330;51.936;7.184;2022-09-03T00:09:52;17.90;72.30
46608;DHT22;32330;51.936;7.184;2022-09-03T00:12:24;17.90;72.20
46608;DHT22;32330;51.936;7.184;2022-09-03T00:17:17;17.90;73.30
46608;DHT22;32330;51.936;7.184;2022-09-03T00:20:00;17.80;72.60
46608;DHT22;32330;51.936;7.184;2022-09-03T00:22:28;17.80;72.60
46608;DHT22;32330;51.936;7.184;2022-09-03T00:24:54;17.70;72.90
46608;DHT22;32330;51.936;7.184;2022-09-03T00:27:22;17.70;73.40
46608;DHT22;32330;51.936;7.184;2022-09-03T00:29:49;17.70;72.90
46608;DHT22;32330;51.936;7.184;2022-09-03T00:35:05;17.60;73.00
46608;DHT22;32330;51.936;7.184;2022-09-03T00:37:33;17.70;73.10
46608;DHT22;32330;51.936;7.184;2022-09-03T00:39:59;17.60;73.10
46608;DHT22;32330;51.936;7.184;2022-09-03T00:50:11;17.50;73.50
46608;DHT22;32330;51.936;7.184;2022-09-03T00:55:26;17.50;73.50
46608;DHT22;32330;51.936;7.184;2022-09-03T01:00:19;17.40;74.00
46608;DHT22;32330;51.936;7.184;2022-09-03T01:05:20;17.40;74.00
46608;DHT22;32330;51.936;7.184;2022-09-03T01:08:08;17.30;74.20
46608;DHT22;32330;51.936;7.184;2022-09-03T01:31:40;17.00;74.90
46608;DHT22;32330;51.936;7.184;2022-09-03T01:44:55;16.90;75.30
46608;DHT22;32330;51.936;7.184;2022-09-03T01:50:14;16.90;75.50
46608;DHT22;32330;51.936;7.184;2022-09-03T01:52:51;16.90;75.60
46608;DHT22;32330;51.936;7.184;2022-09-03T01:57:55;16.80;75.80
46608;DHT22;32330;51.936;7.184;2022-09-03T02:00:23;16.80;75.60
46608;DHT22;32330;51.936;7.184;2022-09-03T02:02:50;16.80;75.80
46608;DHT22;32330;51.936;7.184;2022-09-03T02:05:20;16.80;76.00
46608;DHT22;32330;51.936;7.184;2022-09-03T02:07:55;16.80;76.00
46608;DHT22;32330;51.936;7.184;2022-09-03T02:10:28;16.80;76.20
46608;DHT22;32330;51.936;7.184;2022-09-03T02:12:58;16.70;76.20
46608;DHT22;32330;51.936;7.184;2022-09-03T02:15:25;16.70;76.30
46608;DHT22;32330;51.936;7.184;2022-09-03T02:17:52;16.70;76.30
46608;DHT22;32330;51.936;7.184;2022-09-03T02:20:21;16.70;76.50
46608;DHT22;32330;51.936;7.184;2022-09-03T02:22:48;16.60;76.40
46608;DHT22;32330;51.936;7.184;2022-09-03T02:25:14;16.60;76.50
46608;DHT22;32330;51.936;7.184;2022-09-03T02:27:40;16.60;76.50
46608;DHT22;32330;51.936;7.184;2022-09-03T02:30:06;16.60;76.60
46608;DHT22;32330;51.936;7.184;2022-09-03T02:32:31;16.50;76.90
46608;DHT22;32330;51.936;7.184;2022-09-03T02:34:57;16.50;76.90
46608;DHT22;32330;51.936;7.184;2022-09-03T02:37:23;16.50;77.70
46608;DHT22;32330;51.936;7.184;2022-09-03T02:39:48;16.50;77.00
46608;DHT22;32330;51.936;7.184;2022-09-03T02:42:16;16.50;77.20
46608;DHT22;32330;51.936;7.184;2022-09-03T02:44:52;16.40;77.10
46608;DHT22;32330;51.936;7.184;2022-09-03T02:47:19;16.40;77.20
46608;DHT22;32330;51.936;7.184;2022-09-03T02:49:48;16.40;77.60
46608;DHT22;32330;51.936;7.184;2022-09-03T02:52:13;16.40;77.40
46608;DHT22;32330;51.936;7.184;2022-09-03T02:54:39;16.30;77.50
46608;DHT22;32330;51.936;7.184;2022-09-03T02:57:08;16.30;77.70
46608;DHT22;32330;51.936;7.184;2022-09-03T02:59:34;16.30;77.80
46608;DHT22;32330;51.936;7.184;2022-09-03T03:02:00;16.30;77.60
46608;DHT22;32330;51.936;7.184;2022-09-03T03:04:26;16.30;78.30
46608;DHT22;32330;51.936;7.184;2022-09-03T03:06:52;16.40;77.90
46608;DHT22;32330;51.936;7.184;2022-09-03T03:09:17;16.30;78.00
46608;DHT22;32330;51.936;7.184;2022-09-03T03:11:43;16.30;78.00
46608;DHT22;32330;51.936;7.184;2022-09-03T03:14:08;16.20;78.10
46608;DHT22;32330;51.936;7.184;2022-09-03T03:16:34;16.20;77.70
46608;DHT22;32330;51.936;7.184;2022-09-03T03:19:00;16.20;77.70
46608;DHT22;32330;51.936;7.184;2022-09-03T03:21:25;16.20;78.40
46608;DHT22;32330;51.936;7.184;2022-09-03T03:23:51;16.10;78.30
46608;DHT22;32330;51.936;7.184;2022-09-03T03:26:17;16.20;78.20
46608;DHT22;32330;51.936;7.184;2022-09-03T03:28:43;16.20;78.20
46608;DHT22;32330;51.936;7.184;2022-09-03T03:31:12;16.10;78.50
46608;DHT22;32330;51.936;7.184;2022-09-03T03:33:38;16.10;78.50
46608;DHT22;32330;51.936;7.184;2022-09-03T03:36:08;16.00;78.80
46608;DHT22;32330;51.936;7.184;2022-09-03T03:38:34;16.10;78.60
46608;DHT22;32330;51.936;7.184;2022-09-03T03:41:17;16.10;78.60
46608;DHT22;32330;51.936;7.184;2022-09-03T03:43:43;16.00;78.80
46608;DHT22;32330;51.936;7.184;2022-09-03T03:46:09;16.00;78.80
46608;DHT22;32330;51.936;7.184;2022-09-03T03:48:37;16.00;79.40
46608;DHT22;32330;51.936;7.184;2022-09-03T03:51:04;16.00;79.00
46608;DHT22;32330;51.936;7.184;2022-09-03T03:53:32;15.90;79.00
46608;DHT22;32330;51.936;7.184;2022-09-03T03:55:58;15.90;79.70
46608;DHT22;32330;51.936;7.184;2022-09-03T03:58:24;15.90;79.20
46608;DHT22;32330;51.936;7.184;2022-09-03T04:00:51;15.90;79.40
46608;DHT22;32330;51.936;7.184;2022-09-03T04:03:16;15.90;79.50
46608;DHT22;32330;51.936;7.184;2022-09-03T04:05:42;15.80;79.60
46608;DHT22;32330;51.936;7.184;2022-09-03T04:08:07;15.80;79.60
46608;DHT22;32330;51.936;7.184;2022-09-03T04:10:34;15.80;79.60
46608;DHT22;32330;51.936;7.184;2022-09-03T04:13:00;15.80;79.80
46608;DHT22;32330;51.936;7.184;2022-09-03T04:15:25;15.80;80.40
46608;DHT22;32330;51.936;7.184;2022-09-03T04:17:54;15.80;80.00
46608;DHT22;32330;51.936;7.184;2022-09-03T04:20:20;15.80;80.00
46608;DHT22;32330;51.936;7.184;2022-09-03T04:22:45;15.70;80.00
46608;DHT22;32330;51.936;7.184;2022-09-03T04:25:11;15.80;80.10
46608;DHT22;32330;51.936;7.184;2022-09-03T04:27:36;15.70;80.20
46608;DHT22;32330;51.936;7.184;2022-09-03T04:30:02;15.70;80.30
46608;DHT22;32330;51.936;7.184;2022-09-03T04:32:28;15.70;80.20
46608;DHT22;32330;51.936;7.184;2022-09-03T04:35:12;15.70;80.30
46608;DHT22;32330;51.936;7.184;2022-09-03T04:37:37;15.70;80.20
46608;DHT22;32330;51.936;7.184;2022-09-03T04:40:03;15.60;80.40
46608;DHT22;32330;51.936;7.184;2022-09-03T04:42:28;15.70;80.40
46608;DHT22;32330;51.936;7.184;2022-09-03T04:44:54;15.60;81.00
46608;DHT22;32330;51.936;7.184;2022-09-03T04:47:19;15.60;80.60
46608;DHT22;32330;51.936;7.184;2022-09-03T04:49:45;15.60;80.40
46608;DHT22;32330;51.936;7.184;2022-09-03T04:52:11;15.60;80.70
46608;DHT22;32330;51.936;7.184;2022-09-03T04:54:36;15.60;80.70
46608;DHT22;32330;51.936;7.184;2022-09-03T04:57:02;15.60;80.60
46608;DHT22;32330;51.936;7.184;2022-09-03T04:59:28;15.60;81.50
46608;DHT22;32330;51.936;7.184;2022-09-03T05:01:53;15.50;80.90
46608;DHT22;32330;51.936;7.184;2022-09-03T05:04:20;15.60;81.10
46608;DHT22;32330;51.936;7.184;2022-09-03T05:06:46;15.50;81.10
46608;DHT22;32330;51.936;7.184;2022-09-03T05:09:12;15.50;81.20
46608;DHT22;32330;51.936;7.184;2022-09-03T05:11:37;15.50;81.30
46608;DHT22;32330;51.936;7.184;2022-09-03T05:14:03;15.50;81.40
46608;DHT22;32330;51.936;7.184;2022-09-03T05:16:30;15.50;81.30
46608;DHT22;32330;51.936;7.184;2022-09-03T05:18:56;15.50;81.40
46608;DHT22;32330;51.936;7.184;2022-09-03T05:21:24;15.50;81.50
46608;DHT22;32330;51.936;7.184;2022-09-03T05:23:50;15.50;81.40
46608;DHT22;32330;51.936;7.184;2022-09-03T05:26:21;15.50;81.50
46608;DHT22;32330;51.936;7.184;2022-09-03T05:28:47;15.50;81.60
46608;DHT22;32330;51.936;7.184;2022-09-03T05:31:16;15.60;81.60
46608;DHT22;32330;51.936;7.184;2022-09-03T05:33:43;15.60;82.20
46608;DHT22;32330;51.936;7.184;2022-09-03T05:36:10;15.60;81.90
46608;DHT22;32330;51.936;7.184;2022-09-03T05:38:36;15.60;81.90
46608;DHT22;32330;51.936;7.184;2022-09-03T05:41:03;15.60;81.80
46608;DHT22;32330;51.936;7.184;2022-09-03T05:43:29;15.60;82.00
46608;DHT22;32330;51.936;7.184;2022-09-03T05:45:58;15.60;82.40
46608;DHT22;32330;51.936;7.184;2022-09-03T05:48:28;15.60;81.90
46608;DHT22;32330;51.936;7.184;2022-09-03T05:53:25;15.70;81.60
46608;DHT22;32330;51.936;7.184;2022-09-03T05:55:57;15.80;81.90
46608;DHT22;32330;51.936;7.184;2022-09-03T05:58:23;15.80;81.90
46608;DHT22;32330;51.936;7.184;2022-09-03T06:00:50;15.80;81.90
46608;DHT22;32330;51.936;7.184;2022-09-03T06:03:15;15.90;81.80
46608;DHT22;32330;51.936;7.184;2022-09-03T06:05:48;15.80;81.90
46608;DHT22;32330;51.936;7.184;2022-09-03T06:08:13;15.90;81.60
46608;DHT22;32330;51.936;7.184;2022-09-03T06:10:39;16.00;81.80
46608;DHT22;32330;51.936;7.184;2022-09-03T06:13:04;16.10;81.90
46608;DHT22;32330;51.936;7.184;2022-09-03T06:15:30;16.10;81.40
46608;DHT22;32330;51.936;7.184;2022-09-03T06:17:56;16.20;81.30
46608;DHT22;32330;51.936;7.184;2022-09-03T06:20:21;16.30;81.50
46608;DHT22;32330;51.936;7.184;2022-09-03T06:22:52;16.30;81.00
46608;DHT22;32330;51.936;7.184;2022-09-03T06:25:18;16.40;80.90
46608;DHT22;32330;51.936;7.184;2022-09-03T06:27:43;16.50;80.80
46608;DHT22;32330;51.936;7.184;2022-09-03T06:30:10;16.60;80.60
46608;DHT22;32330;51.936;7.184;2022-09-03T06:32:42;16.70;80.40
46608;DHT22;32330;51.936;7.184;2022-09-03T06:35:08;16.70;80.30
46608;DHT22;32330;51.936;7.184;2022-09-03T06:37:38;16.80;80.00
46608;DHT22;32330;51.936;7.184;2022-09-03T06:40:03;16.90;80.30
46608;DHT22;32330;51.936;7.184;2022-09-03T06:42:29;17.00;79.60
46608;DHT22;32330;51.936;7.184;2022-09-03T06:44:55;17.10;79.50
46608;DHT22;32330;51.936;7.184;2022-09-03T06:47:22;17.20;79.40
46608;DHT22;32330;51.936;7.184;2022-09-03T06:49:47;17.30;79.30
46608;DHT22;32330;51.936;7.184;2022-09-03T06:52:13;17.40;79.50
46608;DHT22;32330;51.936;7.184;2022-09-03T06:54:38;17.50;78.60
46608;DHT22;32330;51.936;7.184;2022-09-03T06:57:04;17.60;78.40
46608;DHT22;32330;51.936;7.184;2022-09-03T06:59:30;17.80;78.10
46608;DHT22;32330;51.936;7.184;2022-09-03T07:01:56;17.90;77.70
46608;DHT22;32330;51.936;7.184;2022-09-03T07:04:23;17.90;77.50
46608;DHT22;32330;51.936;7.184;2022-09-03T07:06:49;18.10;77.60
46608;DHT22;32330;51.936;7.184;2022-09-03T07:09:16;18.20;77.70
46608;DHT22;32330;51.936;7.184;2022-09-03T07:11:43;18.30;76.60
46608;DHT22;32330;51.936;7.184;2022-09-03T07:14:15;18.30;77.20
46608;DHT22;32330;51.936;7.184;2022-09-03T07:16:41;18.50;77.20
46608;DHT22;32330;51.936;7.184;2022-09-03T07:19:08;18.70;76.50
46608;DHT22;32330;51.936;7.184;2022-09-03T07:21:34;18.80;76.80
46608;DHT22;32330;51.936;7.184;2022-09-03T07:24:05;18.80;76.00
46608;DHT22;32330;51.936;7.184;2022-09-03T07:26:33;18.80;75.80
46608;DHT22;32330;51.936;7.184;2022-09-03T07:28:59;18.90;76.00
46608;DHT22;32330;51.936;7.184;2022-09-03T07:31:32;19.00;75.40
46608;DHT22;32330;51.936;7.184;2022-09-03T07:34:02;19.10;75.20
46608;DHT22;32330;51.936;7.184;2022-09-03T07:36:33;19.30;75.50
46608;DHT22;32330;51.936;7.184;2022-09-03T07:38:59;19.30;75.50
46608;DHT22;32330;51.936;7.184;2022-09-03T07:41:25;19.50;75.00
46608;DHT22;32330;51.936;7.184;2022-09-03T07:43:51;19.70;75.00
46608;DHT22;32330;51.936;7.184;2022-09-03T07:46:18;19.80;74.50
46608;DHT22;32330;51.936;7.184;2022-09-03T07:48:47;19.80;73.90
46608;DHT22;32330;51.936;7.184;2022-09-03T07:51:13;19.90;74.00
46608;DHT22;32330;51.936;7.184;2022-09-03T07:53:39;20.00;73.50
46608;DHT22;32330;51.936;7.184;2022-09-03T07:56:05;20.10;73.80
46608;DHT22;32330;51.936;7.184;2022-09-03T07:58:31;20.30;73.50
46608;DHT22;32330;51.936;7.184;2022-09-03T08:00:57;20.40;72.80
46608;DHT22;32330;51.936;7.184;2022-09-03T08:03:23;20.20;72.70
46608;DHT22;32330;51.936;7.184;2022-09-03T08:05:49;20.40;73.20
46608;DHT22;32330;51.936;7.184;2022-09-03T08:08:14;20.60;72.90
46608;DHT22;32330;51.936;7.184;2022-09-03T08:10:40;20.80;73.10
46608;DHT22;32330;51.936;7.184;2022-09-03T08:13:06;20.90;71.70
46608;DHT22;32330;51.936;7.184;2022-09-03T08:15:32;21.00;72.10
46608;DHT22;32330;51.936;7.184;2022-09-03T08:17:58;21.10;71.60
46608;DHT22;32330;51.936;7.184;2022-09-03T08:20:25;21.20;71.60
46608;DHT22;32330;51.936;7.184;2022-09-03T08:22:50;21.40;72.10
46608;DHT22;32330;51.936;7.184;2022-09-03T08:25:16;21.40;71.30
46608;DHT22;32330;51.936;7.184;2022-09-03T08:27:41;21.50;71.40
46608;DHT22;32330;51.936;7.184;2022-09-03T08:30:07;21.70;70.60
46608;DHT22;32330;51.936;7.184;2022-09-03T08:32:39;21.60;71.00
46608;DHT22;32330;51.936;7.184;2022-09-03T08:35:05;21.80;70.10
46608;DHT22;32330;51.936;7.184;2022-09-03T08:37:31;22.00;70.60
46608;DHT22;32330;51.936;7.184;2022-09-03T08:39:57;22.20;70.20
46608;DHT22;32330;51.936;7.184;2022-09-03T08:42:38;22.30;69.90
46608;DHT22;32330;51.936;7.184;2022-09-03T08:45:06;22.40;69.40
46608;DHT22;32330;51.936;7.184;2022-09-03T08:47:40;22.40;69.30
46608;DHT22;32330;51.936;7.184;2022-09-03T08:57:46;22.90;68.20
46608;DHT22;32330;51.936;7.184;2022-09-03T09:00:12;23.00;68.60
46608;DHT22;32330;51.936;7.184;2022-09-03T09:02:47;23.10;67.50
46608;DHT22;32330;51.936;7.184;2022-09-03T09:05:18;23.10;67.50
46608;DHT22;32330;51.936;7.184;2022-09-03T09:08:01;23.40;68.00
46608;DHT22;32330;51.936;7.184;2022-09-03T09:10:35;23.40;67.60
46608;DHT22;32330;51.936;7.184;2022-09-03T09:20:42;23.80;67.10
46608;DHT22;32330;51.936;7.184;2022-09-03T09:23:14;24.10;66.80
46608;DHT22;32330;51.936;7.184;2022-09-03T09:25:46;24.20;65.90
46608;DHT22;32330;51.936;7.184;2022-09-03T09:28:15;24.10;66.00
46608;DHT22;32330;51.936;7.184;2022-09-03T09:30:41;24.10;65.80
46608;DHT22;32330;51.936;7.184;2022-09-03T09:33:07;24.40;65.70
46608;DHT22;32330;51.936;7.184;2022-09-03T09:35:32;24.50;65.30
46608;DHT22;32330;51.936;7.184;2022-09-03T09:37:58;24.50;65.70
46608;DHT22;32330;51.936;7.184;2022-09-03T09:40:35;24.50;65.60
46608;DHT22;32330;51.936;7.184;2022-09-03T09:45:29;24.80;65.20
46608;DHT22;32330;51.936;7.184;2022-09-03T09:47:56;24.70;65.20
46608;DHT22;32330;51.936;7.184;2022-09-03T09:50:22;24.80;65.10
46608;DHT22;32330;51.936;7.184;2022-09-03T09:52:47;25.00;65.10
46608;DHT22;32330;51.936;7.184;2022-09-03T09:55:24;25.20;64.90
46608;DHT22;32330;51.936;7.184;2022-09-03T09:58:03;25.40;64.00
46608;DHT22;32330;51.936;7.184;2022-09-03T10:00:29;25.40;64.60
46608;DHT22;32330;51.936;7.184;2022-09-03T10:02:58;25.30;63.80
46608;DHT22;32330;51.936;7.184;2022-09-03T10:05:24;25.40;64.30
46608;DHT22;32330;51.936;7.184;2022-09-03T10:08:00;25.50;63.90
46608;DHT22;32330;51.936;7.184;2022-09-03T10:10:27;25.40;64.20
46608;DHT22;32330;51.936;7.184;2022-09-03T10:12:58;25.60;63.40
46608;DHT22;32330;51.936;7.184;2022-09-03T10:18:07;25.80;63.40
46608;DHT22;32330;51.936;7.184;2022-09-03T10:20:48;26.10;63.10
46608;DHT22;32330;51.936;7.184;2022-09-03T10:23:26;26.20;62.90
46608;DHT22;32330;51.936;7.184;2022-09-03T10:28:23;26.30;62.60
46608;DHT22;32330;51.936;7.184;2022-09-03T10:33:23;26.40;62.70
46608;DHT22;32330;51.936;7.184;2022-09-03T10:36:01;26.50;62.40
46608;DHT22;32330;51.936;7.184;2022-09-03T10:38:30;26.40;62.20
46608;DHT22;32330;51.936;7.184;2022-09-03T10:46:16;27.00;62.60
46608;DHT22;32330;51.936;7.184;2022-09-03T10:51:23;27.20;61.50
46608;DHT22;32330;51.936;7.184;2022-09-03T10:56:32;27.20;61.80
46608;DHT22;32330;51.936;7.184;2022-09-03T11:04:42;27.20;61.30
46608;DHT22;32330;51.936;7.184;2022-09-03T11:07:11;27.00;61.40
46608;DHT22;32330;51.936;7.184;2022-09-03T11:09:54;27.10;61.20
46608;DHT22;32330;51.936;7.184;2022-09-03T11:12:22;27.20;61.30
46608;DHT22;32330;51.936;7.184;2022-09-03T11:14:51;27.40;61.10
46608;DHT22;32330;51.936;7.184;2022-09-03T11:19:55;27.70;61.20
46608;DHT22;32330;51.936;7.184;2022-09-03T11:22:22;27.80;61.10
46608;DHT22;32330;51.936;7.184;2022-09-03T11:24:50;27.80;60.70
46608;DHT22;32330;51.936;7.184;2022-09-03T11:27:25;27.70;60.90
46608;DHT22;32330;51.936;7.184;2022-09-03T11:30:00;27.80;61.10
46608;DHT22;32330;51.936;7.184;2022-09-03T11:32:39;27.80;60.80
46608;DHT22;32330;51.936;7.184;2022-09-03T11:35:13;27.80;60.80
46608;DHT22;32330;51.936;7.184;2022-09-03T11:37:47;27.90;60.90
46608;DHT22;32330;51.936;7.184;2022-09-03T11:40:15;28.10;60.70
46608;DHT22;32330;51.936;7.184;2022-09-03T11:42:44;28.00;60.50
46608;DHT22;32330;51.936;7.184;2022-09-03T11:45:11;27.90;61.30
46608;DHT22;32330;51.936;7.184;2022-09-03T11:47:39;28.00;60.60
46608;DHT22;32330;51.936;7.184;2022-09-03T11:50:24;28.10;60.10
46608;DHT22;32330;51.936;7.184;2022-09-03T11:52:51;28.20;61.00
46608;DHT22;32330;51.936;7.184;2022-09-03T11:55:27;28.00;60.30
46608;DHT22;32330;51.936;7.184;2022-09-03T11:57:55;28.30;60.80
46608;DHT22;32330;51.936;7.184;2022-09-03T12:00:21;28.60;59.90
46608;DHT22;32330;51.936;7.184;2022-09-03T12:02:56;28.50;60.80
46608;DHT22;32330;51.936;7.184;2022-09-03T12:05:26;28.40;61.20
46608;DHT22;32330;51.936;7.184;2022-09-03T12:18:30;28.60;60.50
46608;DHT22;32330;51.936;7.184;2022-09-03T12:23:32;28.40;60.20
46608;DHT22;32330;51.936;7.184;2022-09-03T12:25:59;28.50;60.30
46608;DHT22;32330;51.936;7.184;2022-09-03T12:28:26;28.50;60.40
46608;DHT22;32330;51.936;7.184;2022-09-03T12:30:52;28.70;60.60
46608;DHT22;32330;51.936;7.184;2022-09-03T12:33:19;28.70;60.10
46608;DHT22;32330;51.936;7.184;2022-09-03T12:35:54;28.90;60.10
46608;DHT22;32330;51.936;7.184;2022-09-03T12:38:23;29.00;59.50
46608;DHT22;32330;51.936;7.184;2022-09-03T12:40:49;28.80;59.70
46608;DHT22;32330;51.936;7.184;2022-09-03T12:43:15;28.70;59.90
46608;DHT22;32330;51.936;7.184;2022-09-03T12:45:42;28.60;60.30
46608;DHT22;32330;51.936;7.184;2022-09-03T12:48:12;28.80;60.10
46608;DHT22;32330;51.936;7.184;2022-09-03T12:50:40;28.80;60.30
46608;DHT22;32330;51.936;7.184;2022-09-03T12:53:06;29.00;60.40
46608;DHT22;32330;51.936;7.184;2022-09-03T12:58:06;29.10;59.90
46608;DHT22;32330;51.936;7.184;2022-09-03T13:00:35;29.30;59.80
46608;DHT22;32330;51.936;7.184;2022-09-03T13:03:03;29.10;59.30
46608;DHT22;32330;51.936;7.184;2022-09-03T13:05:34;28.80;60.00
46608;DHT22;32330;51.936;7.184;2022-09-03T13:08:01;28.80;60.80
46608;DHT22;32330;51.936;7.184;2022-09-03T13:10:30;29.00;60.30
46608;DHT22;32330;51.936;7.184;2022-09-03T13:12:58;29.20;60.10
46608;DHT22;32330;51.936;7.184;2022-09-03T13:15:24;29.20;59.50
46608;DHT22;32330;51.936;7.184;2022-09-03T13:18:00;29.30;59.50
46608;DHT22;32330;51.936;7.184;2022-09-03T13:20:47;29.40;59.60
46608;DHT22;32330;51.936;7.184;2022-09-03T13:28:35;29.60;59.30
46608;DHT22;32330;51.936;7.184;2022-09-03T13:34:02;29.60;59.00
46608;DHT22;32330;51.936;7.184;2022-09-03T13:36:32;29.30;59.10
46608;DHT22;32330;51.936;7.184;2022-09-03T13:39:02;29.20;59.60
46608;DHT22;32330;51.936;7.184;2022-09-03T13:44:32;29.60;59.90
46608;DHT22;32330;51.936;7.184;2022-09-03T13:47:01;29.70;59.50
46608;DHT22;32330;51.936;7.184;2022-09-03T13:52:16;29.90;59.00
46608;DHT22;32330;51.936;7.184;2022-09-03T13:54:49;29.90;58.80
46608;DHT22;32330;51.936;7.184;2022-09-03T13:57:25;29.80;58.80
46608;DHT22;32330;51.936;7.184;2022-09-03T14:12:49;29.50;59.90
46608;DHT22;32330;51.936;7.184;2022-09-03T14:15:28;29.50;59.10
46608;DHT22;32330;51.936;7.184;2022-09-03T14:17:59;29.50;59.30
46608;DHT22;32330;51.936;7.184;2022-09-03T14:25:19;29.30;59.90
46608;DHT22;32330;51.936;7.184;2022-09-03T14:27:44;29.60;60.10
46608;DHT22;32330;51.936;7.184;2022-09-03T14:32:42;29.50;59.90
46608;DHT22;32330;51.936;7.184;2022-09-03T14:40:44;30.00;60.00
46608;DHT22;32330;51.936;7.184;2022-09-03T14:53:47;29.60;60.20
46608;DHT22;32330;51.936;7.184;2022-09-03T14:56:31;29.40;60.70
46608;DHT22;32330;51.936;7.184;2022-09-03T15:01:28;29.30;60.80
46608;DHT22;32330;51.936;7.184;2022-09-03T15:11:56;29.00;61.10
46608;DHT22;32330;51.936;7.184;2022-09-03T15:14:25;29.10;60.90
46608;DHT22;32330;51.936;7.184;2022-09-03T15:32:09;28.50;62.20
46608;DHT22;32330;51.936;7.184;2022-09-03T15:34:58;28.50;62.10
46608;DHT22;32330;51.936;7.184;2022-09-03T15:37:31;28.40;62.70
46608;DHT22;32330;51.936;7.184;2022-09-03T15:39:59;28.40;62.70
46608;DHT22;32330;51.936;7.184;2022-09-03T15:42:26;28.30;62.70
46608;DHT22;32330;51.936;7.184;2022-09-03T15:44:53;28.30;63.00
46608;DHT22;32330;51.936;7.184;2022-09-03T15:48:20;28.10;63.40
46608;DHT22;32330;51.936;7.184;2022-09-03T15:50:23;28.20;62.50
46608;DHT22;32330;51.936;7.184;2022-09-03T15:55:31;28.20;62.70
46608;DHT22;32330;51.936;7.184;2022-09-03T16:00:38;27.90;63.20
46608;DHT22;32330;51.936;7.184;2022-09-03T16:03:07;28.00;63.80
46608;DHT22;32330;51.936;7.184;2022-09-03T16:05:46;28.00;63.70
46608;DHT22;32330;51.936;7.184;2022-09-03T16:11:00;27.80;64.20
46608;DHT22;32330;51.936;7.184;2022-09-03T16:16:00;27.70;64.80
46608;DHT22;32330;51.936;7.184;2022-09-03T16:18:27;27.60;64.90
46608;DHT22;32330;51.936;7.184;2022-09-03T16:21:31;27.40;65.00
46608;DHT22;32330;51.936;7.184;2022-09-03T16:24:02;27.40;65.50
46608;DHT22;32330;51.936;7.184;2022-09-03T16:26:31;27.30;65.40
46608;DHT22;32330;51.936;7.184;2022-09-03T16:29:01;27.10;65.50
46608;DHT22;32330;51.936;7.184;2022-09-03T16:34:00;27.10;65.40
46608;DHT22;32330;51.936;7.184;2022-09-03T16:36:38;27.00;65.20
46608;DHT22;32330;51.936;7.184;2022-09-03T16:44:07;26.60;65.40
46608;DHT22;32330;51.936;7.184;2022-09-03T16:47:40;26.60;65.50
46608;DHT22;32330;51.936;7.184;2022-09-03T16:49:44;26.50;65.60
46608;DHT22;32330;51.936;7.184;2022-09-03T16:52:15;26.50;65.70
46608;DHT22;32330;51.936;7.184;2022-09-03T17:00:14;26.50;66.10
46608;DHT22;32330;51.936;7.184;2022-09-03T17:05:12;26.30;66.40
46608;DHT22;32330;51.936;7.184;2022-09-03T17:18:02;26.00;67.00
46608;DHT22;32330;51.936;7.184;2022-09-03T17:30:42;25.50;67.90
46608;DHT22;32330;51.936;7.184;2022-09-03T17:36:12;25.40;66.90
46608;DHT22;32330;51.936;7.184;2022-09-03T17:38:46;25.20;66.70
46608;DHT22;32330;51.936;7.184;2022-09-03T17:49:18;24.90;67.30
46608;DHT22;32330;51.936;7.184;2022-09-03T17:52:07;24.80;67.50
46608;DHT22;32330;51.936;7.184;2022-09-03T17:54:41;24.80;67.70
46608;DHT22;32330;51.936;7.184;2022-09-03T18:00:19;24.60;68.10
46608;DHT22;32330;51.936;7.184;2022-09-03T18:02:33;24.50;68.30
46608;DHT22;32330;51.936;7.184;2022-09-03T18:07:47;24.40;68.70
46608;DHT22;32330;51.936;7.184;2022-09-03T18:10:17;24.30;68.90
46608;DHT22;32330;51.936;7.184;2022-09-03T18:18:02;23.90;70.60
46608;DHT22;32330;51.936;7.184;2022-09-03T18:20:28;23.80;70.20
46608;DHT22;32330;51.936;7.184;2022-09-03T18:23:21;23.70;70.30
46608;DHT22;32330;51.936;7.184;2022-09-03T18:26:10;23.60;71.30
46608;DHT22;32330;51.936;7.184;2022-09-03T18:28:57;23.50;70.90
46608;DHT22;32330;51.936;7.184;2022-09-03T18:31:43;23.40;70.70
46608;DHT22;32330;51.936;7.184;2022-09-03T18:34:31;23.30;71.40
46608;DHT22;32330;51.936;7.184;2022-09-03T18:37:20;23.20;72.00
46608;DHT22;32330;51.936;7.184;2022-09-03T18:40:05;23.20;72.30
46608;DHT22;32330;51.936;7.184;2022-09-03T18:42:50;23.10;71.30
46608;DHT22;32330;51.936;7.184;2022-09-03T18:45:57;23.10;71.30
46608;DHT22;32330;51.936;7.184;2022-09-03T18:48:53;23.00;71.10
46608;DHT22;32330;51.936;7.184;2022-09-03T18:57:38;22.80;71.40
46608;DHT22;32330;51.936;7.184;2022-09-03T19:00:26;22.80;71.90
46608;DHT22;32330;51.936;7.184;2022-09-03T19:06:02;22.60;72.70
46608;DHT22;32330;51.936;7.184;2022-09-03T19:08:51;22.60;71.70
46608;DHT22;32330;51.936;7.184;2022-09-03T19:11:46;22.50;72.80
46608;DHT22;32330;51.936;7.184;2022-09-03T19:14:55;22.50;72.90
46608;DHT22;32330;51.936;7.184;2022-09-03T19:20:29;22.30;72.70
46608;DHT22;32330;51.936;7.184;2022-09-03T19:23:14;22.30;72.80
46608;DHT22;32330;51.936;7.184;2022-09-03T19:29:02;22.10;73.00
46608;DHT22;32330;51.936;7.184;2022-09-03T19:31:59;22.00;73.50
46608;DHT22;32330;51.936;7.184;2022-09-03T19:37:57;21.90;73.60
46608;DHT22;32330;51.936;7.184;2022-09-03T19:40:51;21.80;73.80
46608;DHT22;32330;51.936;7.184;2022-09-03T19:46:48;21.70;74.10
46608;DHT22;32330;51.936;7.184;2022-09-03T19:55:04;21.60;74.00
46608;DHT22;32330;51.936;7.184;2022-09-03T19:57:51;21.50;74.70
46608;DHT22;32330;51.936;7.184;2022-09-03T20:00:37;21.50;74.60
46608;DHT22;32330;51.936;7.184;2022-09-03T20:03:21;21.50;75.10
46608;DHT22;32330;51.936;7.184;2022-09-03T20:06:07;21.40;74.30
46608;DHT22;32330;51.936;7.184;2022-09-03T20:08:52;21.30;74.50
46608;DHT22;32330;51.936;7.184;2022-09-03T20:11:39;21.30;74.30
46608;DHT22;32330;51.936;7.184;2022-09-03T20:14:08;21.30;74.60
46608;DHT22;32330;51.936;7.184;2022-09-03T20:22:11;21.20;75.10
46608;DHT22;32330;51.936;7.184;2022-09-03T20:37:33;20.90;75.90
46608;DHT22;32330;51.936;7.184;2022-09-03T20:40:19;20.80;75.90
46608;DHT22;32330;51.936;7.184;2022-09-03T20:42:52;20.80;75.80
46608;DHT22;32330;51.936;7.184;2022-09-03T20:50:30;20.80;76.10
46608;DHT22;32330;51.936;7.184;2022-09-03T20:55:40;20.70;76.60
46608;DHT22;32330;51.936;7.184;2022-09-03T20:58:09;20.60;76.40
46608;DHT22;32330;51.936;7.184;2022-09-03T21:03:21;20.50;76.70
46608;DHT22;32330;51.936;7.184;2022-09-03T21:06:01;20.50;77.10
46608;DHT22;32330;51.936;7.184;2022-09-03T21:11:01;20.40;77.40
46608;DHT22;32330;51.936;7.184;2022-09-03T21:13:45;20.40;77.20
46608;DHT22;32330;51.936;7.184;2022-09-03T21:18:51;20.40;77.80
46608;DHT22;32330;51.936;7.184;2022-09-03T21:21:23;20.30;78.00